Time;durP1;ratioP1;P1;durP2;ratioP2;P2;SDS_P1;SDS_P2;PMS_P1;PMS_P2;Temp;Humidity;BMP_temperature;BMP_pressure;BME280_temperature;BME280_humidity;BME280_pressure;Samples;Min_cycle;Max_cycle;Signal;HPM_P1;HPM_P2
2024/01/06 00:02:17;;;;;;;101.80;43.00;;;;;;;-0.26;100.00;98067.85;272936;1271;22333;-90
2024/01/06 00:08:20;;;;;;;103.90;41.60;;;;;;;-0.23;100.00;98068.41;273305;1271;22611;-88
2024/01/06 00:14:22;;;;;;;96.20;42.70;;;;;;;-0.22;100.00;98072.70;270869;1270;22571;-89
2024/01/06 00:20:24;;;;;;;97.20;42.50;;;;;;;-0.20;100.00;98070.92;270401;1270;22627;-91
2024/01/06 00:26:27;;;;;;;101.90;41.50;;;;;;;-0.19;100.00;98063.13;270283;1271;22419;-89
2024/01/06 00:32:31;;;;;;;104.50;43.50;;;;;;;-0.15;100.00;98059.32;271650;1272;22430;-90
2024/01/06 00:38:36;;;;;;;101.10;42.50;;;;;;;-0.10;100.00;98056.16;272905;1271;22553;-89
2024/01/06 00:44:38;;;;;;;105.60;42.50;;;;;;;-0.06;100.00;98053.63;272498;1272;23273;-90
2024/01/06 00:50:46;;;;;;;114.90;46.50;;;;;;;-0.04;100.00;98050.46;272704;1262;22350;-90
2024/01/06 00:56:48;;;;;;;109.90;44.40;;;;;;;-0.02;100.00;98036.91;272688;1270;22606;-90
2024/01/06 01:02:50;;;;;;;107.70;42.90;;;;;;;0.02;100.00;98031.30;270373;1272;22666;-88
2024/01/06 01:08:53;;;;;;;107.90;42.50;;;;;;;0.08;100.00;98032.20;272030;1271;22591;-89
2024/01/06 01:14:55;;;;;;;105.50;43.80;;;;;;;0.07;100.00;98034.89;271034;1270;22414;-89
2024/01/06 01:20:57;;;;;;;110.00;43.90;;;;;;;0.08;100.00;98035.37;273096;1273;22700;-90
2024/01/06 01:27:00;;;;;;;123.80;48.70;;;;;;;0.12;100.00;98042.42;272992;1272;23009;-89
2024/01/06 01:33:05;;;;;;;102.20;43.70;;;;;;;0.16;100.00;98041.73;273211;1270;23622;-90
2024/01/06 01:39:09;;;;;;;95.60;41.20;;;;;;;0.19;100.00;98035.60;271209;1272;22256;-90
2024/01/06 01:45:11;;;;;;;97.60;41.10;;;;;;;0.17;100.00;98032.99;273086;1271;22209;-89
2024/01/06 01:51:13;;;;;;;99.50;42.60;;;;;;;0.20;100.00;98030.79;272829;1272;22188;-89
2024/01/06 01:57:17;;;;;;;102.80;45.30;;;;;;;0.25;100.00;98025.89;273199;1270;22444;-88
2024/01/06 02:03:21;;;;;;;94.80;40.50;;;;;;;0.28;100.00;98017.00;273433;1270;22241;-89
2024/01/06 02:09:26;;;;;;;100.20;41.70;;;;;;;0.32;100.00;98023.61;273239;1272;22230;-90
2024/01/06 02:15:31;;;;;;;100.90;42.80;;;;;;;0.36;100.00;98013.15;271963;1271;22753;-88
2024/01/06 02:21:35;;;;;;;104.10;44.20;;;;;;;0.40;100.00;98016.05;270737;1270;22572;-89
2024/01/06 02:27:40;;;;;;;96.70;40.60;;;;;;;0.42;100.00;98014.73;272354;1272;22416;-89
2024/01/06 02:33:42;;;;;;;99.60;41.80;;;;;;;0.44;100.00;98017.66;272783;1260;23634;-87
2024/01/06 02:39:44;;;;;;;100.70;43.30;;;;;;;0.44;100.00;98030.04;270834;1273;22386;-89
2024/01/06 02:45:46;;;;;;;102.20;42.90;;;;;;;0.43;100.00;98027.10;272877;1275;22496;-89
2024/01/06 02:51:48;;;;;;;103.50;41.70;;;;;;;0.44;100.00;98021.05;273082;1271;22352;-88
2024/01/06 02:57:50;;;;;;;90.70;40.00;;;;;;;0.45;100.00;98013.77;272974;1274;22355;-89
2024/01/06 03:03:52;;;;;;;95.60;40.90;;;;;;;0.45;100.00;98019.07;273015;1272;22185;-88
2024/01/06 03:09:54;;;;;;;96.00;41.00;;;;;;;0.43;100.00;98007.95;272987;1279;22371;-89
2024/01/06 03:15:56;;;;;;;103.70;44.40;;;;;;;0.40;100.00;98004.52;272426;1271;23572;-90
2024/01/06 03:21:58;;;;;;;98.90;40.40;;;;;;;0.37;100.00;98002.65;272966;1277;23726;-88
2024/01/06 03:28:00;;;;;;;94.00;40.60;;;;;;;0.35;100.00;98000.33;273097;1274;22526;-89
2024/01/06 03:34:01;;;;;;;101.80;44.50;;;;;;;0.33;100.00;98003.33;270151;1275;22672;-87
2024/01/06 03:40:04;;;;;;;96.50;42.00;;;;;;;0.32;100.00;98004.48;272065;1269;22583;-88
2024/01/06 03:46:06;;;;;;;97.90;42.20;;;;;;;0.37;100.00;97995.87;271490;1273;399178;-89
2024/01/06 03:52:08;;;;;;;99.90;43.30;;;;;;;0.39;100.00;97991.17;271376;1272;22216;-87
2024/01/06 03:58:09;;;;;;;106.60;43.80;;;;;;;0.38;100.00;97998.84;272986;1270;22407;-88
2024/01/06 04:04:12;;;;;;;110.20;46.40;;;;;;;0.41;100.00;97998.86;272912;1272;22411;-88
2024/01/06 04:10:17;;;;;;;82.60;35.30;;;;;;;0.43;100.00;97995.23;272592;1272;22548;-90
2024/01/06 04:16:19;;;;;;;105.00;46.30;;;;;;;0.46;100.00;97987.58;272687;1262;22309;-90
2024/01/06 04:22:21;;;;;;;102.90;45.50;;;;;;;0.49;100.00;97989.66;272772;1271;23562;-89
2024/01/06 04:28:23;;;;;;;108.10;45.80;;;;;;;0.52;100.00;97994.55;270378;1271;23808;-90
2024/01/06 04:34:25;;;;;;;92.80;44.40;;;;;;;0.56;100.00;98001.98;271684;1273;23370;-89
2024/01/06 04:40:27;;;;;;;87.90;41.50;;;;;;;0.59;100.00;98003.23;273188;1274;22733;-89
2024/01/06 04:46:30;;;;;;;86.00;38.20;;;;;;;0.60;100.00;98007.77;272557;1274;23185;-88
2024/01/06 04:52:32;;;;;;;80.00;39.20;;;;;;;0.63;100.00;98005.48;271656;1274;22450;-88
2024/01/06 04:58:34;;;;;;;78.80;38.60;;;;;;;0.64;100.00;98014.59;270594;1277;22544;-88
2024/01/06 05:04:41;;;;;;;73.70;37.20;;;;;;;0.62;100.00;98013.95;271987;1273;22209;-88
2024/01/06 05:10:44;;;;;;;79.10;38.60;;;;;;;0.62;100.00;98028.67;271278;1276;23226;-89
2024/01/06 05:16:46;;;;;;;82.40;38.90;;;;;;;0.63;100.00;98027.54;270158;1276;22556;-88
2024/01/06 05:22:48;;;;;;;83.60;39.10;;;;;;;0.65;100.00;98037.84;271269;1272;22596;-88
2024/01/06 05:28:50;;;;;;;81.30;39.60;;;;;;;0.67;100.00;98032.15;271266;1271;22643;-90
2024/01/06 05:34:51;;;;;;;81.90;38.40;;;;;;;0.69;100.00;98030.51;271192;1277;22358;-89
2024/01/06 05:40:53;;;;;;;86.20;41.00;;;;;;;0.66;100.00;98025.89;270832;1273;22554;-88
2024/01/06 05:46:55;;;;;;;84.10;39.50;;;;;;;0.65;100.00;98035.76;272449;1272;22336;-87
2024/01/06 05:52:57;;;;;;;75.10;36.70;;;;;;;0.66;100.00;98042.59;272563;1273;22380;-88
2024/01/06 05:58:59;;;;;;;78.60;39.80;;;;;;;0.67;100.00;98053.92;272858;1276;22375;-87
2024/01/06 06:05:01;;;;;;;80.20;38.80;;;;;;;0.68;100.00;98047.03;271496;1272;22620;-88
2024/01/06 06:11:10;;;;;;;81.60;39.80;;;;;;;0.70;100.00;98040.54;272261;1272;22651;-87
2024/01/06 06:17:12;;;;;;;85.40;39.90;;;;;;;0.71;100.00;98044.43;271953;1273;22679;-87
2024/01/06 06:23:14;;;;;;;81.40;41.60;;;;;;;0.70;100.00;98050.72;271665;1273;23320;-90
2024/01/06 06:29:16;;;;;;;89.80;40.90;;;;;;;0.71;100.00;98055.62;273008;1273;23307;-89
2024/01/06 06:35:18;;;;;;;81.60;41.20;;;;;;;0.75;100.00;98052.40;272717;1263;22412;-88
2024/01/06 06:41:20;;;;;;;80.50;41.70;;;;;;;0.79;100.00;98048.11;269785;1273;22571;-88
2024/01/06 06:47:22;;;;;;;85.40;41.50;;;;;;;0.83;100.00;98054.70;270419;1272;22550;-91
2024/01/06 06:53:24;;;;;;;89.20;42.00;;;;;;;0.83;100.00;98050.61;272267;1272;22189;-89
2024/01/06 06:59:26;;;;;;;75.60;38.60;;;;;;;0.80;100.00;98061.61;272973;1272;22558;-87
2024/01/06 07:05:28;;;;;;;80.10;39.70;;;;;;;0.78;100.00;98071.02;271838;1271;22569;-88
2024/01/06 07:11:31;;;;;;;87.90;40.70;;;;;;;0.80;100.00;98069.85;272346;1270;22192;-90
2024/01/06 07:17:33;;;;;;;83.10;41.60;;;;;;;0.83;100.00;98075.94;272370;1270;23229;-89
2024/01/06 07:23:35;;;;;;;82.90;41.10;;;;;;;0.87;100.00;98070.77;273126;1272;23150;-89
2024/01/06 07:29:38;;;;;;;81.20;41.80;;;;;;;0.91;100.00;98074.23;272996;1264;22229;-90
2024/01/06 07:35:43;;;;;;;90.00;42.30;;;;;;;0.94;100.00;98073.17;272170;1271;23353;-89
2024/01/06 07:41:46;;;;;;;94.60;45.10;;;;;;;1.00;100.00;98075.14;272231;1266;22795;-89
2024/01/06 07:47:48;;;;;;;92.80;46.10;;;;;;;1.05;100.00;98070.86;271717;1272;22316;-90
2024/01/06 07:54:23;;;;;;;82.00;41.30;;;;;;;1.10;100.00;98071.16;272959;1271;22475;-90
2024/01/06 08:00:30;;;;;;;80.10;41.20;;;;;;;1.17;100.00;98082.65;272335;1272;22862;-90
2024/01/06 08:06:32;;;;;;;79.40;39.70;;;;;;;1.22;100.00;98091.06;273018;1271;22354;-89
2024/01/06 08:12:34;;;;;;;80.90;40.60;;;;;;;1.25;100.00;98094.31;272856;1271;23245;-90
2024/01/06 08:18:36;;;;;;;80.10;41.70;;;;;;;1.28;100.00;98095.73;272724;1270;22238;-90
2024/01/06 08:24:38;;;;;;;90.20;44.60;;;;;;;1.34;100.00;98097.92;272392;1270;22614;-90
2024/01/06 08:30:40;;;;;;;80.80;40.90;;;;;;;1.42;100.00;98100.25;271220;1270;22629;-91
2024/01/06 08:36:43;;;;;;;82.60;40.90;;;;;;;1.51;100.00;98108.48;271767;1270;22630;-90
2024/01/06 08:42:45;;;;;;;78.70;40.20;;;;;;;1.59;100.00;98116.60;270698;1271;22404;-89
2024/01/06 08:48:47;;;;;;;74.60;37.90;;;;;;;1.63;100.00;98122.67;273013;1272;22405;-90
2024/01/06 08:54:49;;;;;;;75.40;38.30;;;;;;;1.67;100.00;98120.86;272212;1271;22541;-90
2024/01/06 09:00:53;;;;;;;81.20;39.80;;;;;;;1.69;100.00;98118.30;270532;1271;23547;-89
2024/01/06 09:06:56;;;;;;;79.60;43.00;;;;;;;1.74;100.00;98117.36;273091;1272;22460;-89
2024/01/06 09:12:58;;;;;;;74.00;38.10;;;;;;;1.78;100.00;98117.20;273160;1272;22253;-89
2024/01/06 09:19:00;;;;;;;72.30;37.90;;;;;;;1.82;100.00;98124.52;272924;1273;22485;-90
2024/01/06 09:25:03;;;;;;;79.30;38.70;;;;;;;1.85;100.00;98123.75;271719;1272;22291;-89
2024/01/06 09:31:05;;;;;;;69.90;37.80;;;;;;;1.85;100.00;98122.75;272975;1272;22233;-89
2024/01/06 09:37:07;;;;;;;71.80;37.50;;;;;;;1.87;100.00;98125.66;271579;1272;22587;-89
2024/01/06 09:43:09;;;;;;;75.40;40.30;;;;;;;1.90;100.00;98118.20;271612;1271;23388;-89
2024/01/06 09:49:10;;;;;;;78.00;39.80;;;;;;;1.91;100.00;98112.82;272230;1271;24250;-91
2024/01/06 09:55:15;;;;;;;75.70;40.00;;;;;;;1.94;100.00;98113.00;271163;1270;22199;-90
2024/01/06 10:01:21;;;;;;;85.00;41.80;;;;;;;1.98;100.00;98109.49;270995;1272;22445;-89
2024/01/06 10:07:23;;;;;;;78.90;41.00;;;;;;;2.04;100.00;98108.30;272514;1272;22579;-90
2024/01/06 10:13:25;;;;;;;74.00;40.10;;;;;;;2.08;100.00;98102.94;271552;1272;22559;-90
2024/01/06 10:19:27;;;;;;;76.50;40.40;;;;;;;2.14;100.00;98101.13;270887;1271;22227;-89
2024/01/06 10:25:30;;;;;;;76.20;39.80;;;;;;;2.22;100.00;98100.42;273182;1270;22473;-91
2024/01/06 10:31:32;;;;;;;70.40;37.30;;;;;;;2.28;100.00;98101.82;273192;1263;22414;-89
2024/01/06 10:37:35;;;;;;;77.10;42.00;;;;;;;2.31;100.00;98099.30;272657;1271;22596;-89
2024/01/06 10:43:43;;;;;;;81.40;39.20;;;;;;;2.36;100.00;98096.45;272621;1271;23713;-89
2024/01/06 10:49:45;;;;;;;67.40;36.70;;;;;;;2.40;100.00;98093.39;272748;1270;22199;-89
2024/01/06 10:55:50;;;;;;;72.30;38.50;;;;;;;2.40;100.00;98092.08;273115;1271;22422;-90
2024/01/06 11:01:52;;;;;;;75.40;39.50;;;;;;;2.40;100.00;98092.06;272837;1271;22414;-90
2024/01/06 11:07:59;;;;;;;68.90;38.20;;;;;;;2.41;100.00;98086.92;272963;1259;22439;-88
2024/01/06 11:14:37;;;;;;;78.60;38.00;;;;;;;2.44;100.00;98085.23;273016;1271;23847;-89
2024/01/06 11:21:12;;;;;;;77.90;39.60;;;;;;;2.47;100.00;98090.17;271718;1272;22901;-90
2024/01/06 11:27:28;;;;;;;71.90;37.70;;;;;;;2.49;100.00;98088.16;272971;1271;22304;-90
2024/01/06 11:33:33;;;;;;;74.60;39.10;;;;;;;2.53;100.00;98087.48;272978;1271;23297;-88
2024/01/06 11:39:41;;;;;;;77.00;40.70;;;;;;;2.54;100.00;98083.84;273183;1271;22212;-88
2024/01/06 11:45:43;;;;;;;73.90;38.90;;;;;;;2.54;100.00;98081.82;271376;1271;25242;-89
2024/01/06 11:51:45;;;;;;;79.80;40.70;;;;;;;2.56;100.00;98081.33;270692;1268;22647;-89
2024/01/06 11:57:49;;;;;;;74.20;36.90;;;;;;;2.55;100.00;98079.98;271508;1272;22392;-89
2024/01/06 12:03:54;;;;;;;68.40;35.40;;;;;;;2.55;100.00;98074.96;272479;1270;23313;-89
2024/01/06 12:10:06;;;;;;;70.90;35.80;;;;;;;2.58;100.00;98078.46;271989;1272;23309;-89
2024/01/06 12:16:09;;;;;;;67.30;36.40;;;;;;;2.60;100.00;98079.58;272773;1272;23119;-90
2024/01/06 12:22:13;;;;;;;67.40;35.40;;;;;;;2.61;100.00;98084.17;273108;1271;23320;-90
2024/01/06 12:28:15;;;;;;;64.20;35.40;;;;;;;2.65;100.00;98088.67;271785;1271;22408;-88
2024/01/06 12:34:17;;;;;;;71.40;36.10;;;;;;;2.67;100.00;98097.30;272952;1263;22306;-89
2024/01/06 12:40:21;;;;;;;60.20;30.80;;;;;;;2.67;100.00;98105.35;271740;1259;23918;-88
2024/01/06 12:46:24;;;;;;;54.10;29.80;;;;;;;2.69;100.00;98103.45;272680;1271;23450;-89
2024/01/06 12:52:25;;;;;;;49.90;27.70;;;;;;;2.68;100.00;98110.86;273066;1272;22209;-90
2024/01/06 12:58:27;;;;;;;55.00;30.60;;;;;;;2.65;100.00;98113.46;272971;1272;22453;-89
2024/01/06 13:04:29;;;;;;;56.00;30.20;;;;;;;2.64;100.00;98118.92;272678;1271;22565;-88
2024/01/06 13:10:31;;;;;;;52.00;29.50;;;;;;;2.66;100.00;98120.52;272446;1270;22903;-89
2024/01/06 13:16:33;;;;;;;62.90;31.30;;;;;;;2.65;100.00;98126.00;272984;1272;22523;-89
2024/01/06 13:22:35;;;;;;;58.80;30.20;;;;;;;2.64;100.00;98125.31;271923;1270;22336;-88
2024/01/06 13:28:37;;;;;;;59.80;31.40;;;;;;;2.59;100.00;98126.29;272975;1271;22398;-88
2024/01/06 13:34:39;;;;;;;53.10;29.90;;;;;;;2.56;100.00;98124.02;273076;1270;22210;-89
2024/01/06 13:40:41;;;;;;;53.40;29.20;;;;;;;2.53;100.00;98126.10;272509;1271;23498;-90
2024/01/06 13:46:44;;;;;;;59.90;30.50;;;;;;;2.50;100.00;98132.27;272792;1259;23176;-87
2024/01/06 13:52:46;;;;;;;58.40;32.30;;;;;;;2.48;100.00;98136.69;273090;1271;22425;-90
2024/01/06 13:58:48;;;;;;;58.70;32.50;;;;;;;2.46;100.00;98136.78;273021;1270;22498;-89
2024/01/06 14:04:51;;;;;;;55.20;31.30;;;;;;;2.44;100.00;98140.52;273185;1255;22376;-88
2024/01/06 14:10:53;;;;;;;47.70;27.50;;;;;;;2.44;100.00;98149.77;273174;1271;22323;-88
2024/01/06 14:16:55;;;;;;;54.30;28.70;;;;;;;2.43;100.00;98156.38;273002;1272;22310;-90
2024/01/06 14:22:58;;;;;;;50.30;27.30;;;;;;;2.43;100.00;98164.48;272602;1271;22338;-89
2024/01/06 14:29:00;;;;;;;54.20;29.40;;;;;;;2.42;100.00;98165.14;273153;1270;22500;-90
2024/01/06 14:35:11;;;;;;;53.70;29.30;;;;;;;2.39;100.00;98171.39;273101;1271;22180;-89
2024/01/06 14:41:13;;;;;;;50.60;28.00;;;;;;;2.38;100.00;98177.42;272761;1271;22230;-90
2024/01/06 14:47:15;;;;;;;53.30;28.20;;;;;;;2.35;100.00;98176.20;272898;1272;22418;-89
2024/01/06 14:53:17;;;;;;;47.70;25.50;;;;;;;2.31;100.00;98176.98;270749;1272;23425;-89
2024/01/06 14:59:19;;;;;;;49.40;25.50;;;;;;;2.26;100.00;98177.46;270673;1271;22143;-88
2024/01/06 15:05:21;;;;;;;49.00;25.00;;;;;;;2.23;100.00;98181.46;271300;1272;22533;-87
2024/01/06 15:11:30;;;;;;;50.70;26.80;;;;;;;2.20;100.00;98185.98;272720;1271;22612;-89
2024/01/06 15:17:32;;;;;;;47.20;24.10;;;;;;;2.17;100.00;98188.14;272189;1271;23814;-88
2024/01/06 15:23:34;;;;;;;46.00;24.80;;;;;;;2.16;100.00;98191.05;272978;1271;22228;-89
2024/01/06 15:29:36;;;;;;;45.40;24.70;;;;;;;2.16;100.00;98203.15;273028;1271;22606;-88
2024/01/06 15:35:38;;;;;;;45.80;23.50;;;;;;;2.14;100.00;98205.27;270536;1272;22233;-89
2024/01/06 15:41:40;;;;;;;48.80;23.60;;;;;;;2.10;100.00;98206.66;272939;1272;22360;-88
2024/01/06 15:47:42;;;;;;;45.50;24.80;;;;;;;2.08;100.00;98206.69;272782;1270;354245;-89
2024/01/06 15:53:44;;;;;;;48.90;25.90;;;;;;;2.06;100.00;98206.40;273083;1272;22205;-87
2024/01/06 15:59:46;;;;;;;49.20;24.90;;;;;;;2.03;100.00;98201.67;273088;1271;22547;-89
2024/01/06 16:05:48;;;;;;;55.00;27.30;;;;;;;2.04;100.00;98206.23;272788;1272;22552;-88
2024/01/06 16:11:52;;;;;;;51.90;26.20;;;;;;;2.02;100.00;98209.03;270109;1272;23654;-89
2024/01/06 16:17:54;;;;;;;48.40;26.10;;;;;;;2.00;100.00;98208.36;272108;1273;22423;-89
2024/01/06 16:23:56;;;;;;;43.50;23.50;;;;;;;1.94;100.00;98207.33;272938;1271;22349;-89
2024/01/06 16:29:58;;;;;;;49.60;26.30;;;;;;;1.88;100.00;98211.11;273024;1272;22436;-89
2024/01/06 16:36:00;;;;;;;48.60;25.40;;;;;;;1.82;100.00;98214.02;271843;1272;23428;-88
2024/01/06 16:42:03;;;;;;;57.40;27.60;;;;;;;1.76;100.00;98218.83;271642;1271;22227;-88
2024/01/06 16:48:06;;;;;;;47.30;23.90;;;;;;;1.70;100.00;98221.17;271086;1272;22506;-89
2024/01/06 16:54:08;;;;;;;48.30;23.50;;;;;;;1.62;100.00;98226.40;271758;1271;23029;-89
2024/01/06 17:00:20;;;;;;;41.90;21.90;;;;;;;1.55;100.00;98231.93;270327;1270;22547;-88
2024/01/06 17:06:22;;;;;;;49.50;23.80;;;;;;;1.47;100.00;98239.76;271558;1270;22563;-87
2024/01/06 17:12:29;;;;;;;44.60;22.50;;;;;;;1.41;100.00;98243.10;272906;1272;23239;-89
2024/01/06 17:18:31;;;;;;;41.90;21.90;;;;;;;1.37;100.00;98246.88;271883;1271;22624;-89
2024/01/06 17:24:35;;;;;;;42.20;21.50;;;;;;;1.31;100.00;98249.98;271453;1271;22613;-88
2024/01/06 17:30:38;;;;;;;40.60;21.80;;;;;;;1.26;100.00;98250.42;272034;1272;22422;-88
2024/01/06 17:36:40;;;;;;;43.20;21.20;;;;;;;1.22;100.00;98254.27;273092;1270;22960;-90
2024/01/06 17:42:42;;;;;;;35.70;19.20;;;;;;;1.16;100.00;98251.30;273031;1271;22196;-91
2024/01/06 17:48:48;;;;;;;37.40;17.80;;;;;;;1.08;100.00;98253.92;273113;1272;25365;-89
2024/01/06 17:54:58;;;;;;;31.20;15.60;;;;;;;0.99;100.00;98256.00;272026;1272;22236;-90
2024/01/06 18:00:59;;;;;;;29.60;15.10;;;;;;;0.89;100.00;98254.48;273112;1271;22398;-87
2024/01/06 18:07:06;;;;;;;28.50;15.00;;;;;;;0.79;100.00;98256.63;272952;1272;22548;-88
2024/01/06 18:13:08;;;;;;;29.80;15.80;;;;;;;0.71;100.00;98260.41;272945;1271;22480;-90
2024/01/06 18:19:11;;;;;;;28.00;14.00;;;;;;;0.63;100.00;98259.92;272345;1272;22566;-90
2024/01/06 18:25:14;;;;;;;28.40;14.60;;;;;;;0.57;100.00;98264.63;271491;1271;22258;-91
2024/01/06 18:31:41;;;;;;;26.20;14.40;;;;;;;0.50;100.00;98265.05;265296;1273;10001840;-91
2024/01/06 18:37:50;;;;;;;29.80;15.00;;;;;;;0.47;100.00;98265.95;272945;1273;24193;-92
2024/01/06 18:44:02;;;;;;;26.60;15.20;;;;;;;0.46;100.00;98268.76;272524;1272;25278;-90
2024/01/06 18:50:05;;;;;;;28.20;15.60;;;;;;;0.44;100.00;98267.68;271845;1272;22228;-92
2024/01/06 18:56:45;;;;;;;27.80;14.90;;;;;;;0.41;100.00;98266.73;272258;1273;22289;-91
2024/01/06 19:03:00;;;;;;;24.00;13.80;;;;;;;0.36;100.00;98265.48;273056;1275;22403;-90
2024/01/06 19:09:31;;;;;;;27.80;15.10;;;;;;;0.32;100.00;98266.37;272617;1272;24217;-91
2024/01/06 19:16:01;;;;;;;28.20;15.10;;;;;;;0.28;100.00;98269.05;271669;1273;23130;-90
2024/01/06 19:22:04;;;;;;;31.90;17.00;;;;;;;0.27;100.00;98267.21;272554;1271;22222;-91
2024/01/06 19:35:18;;;;;;;27.50;15.30;;;;;;;0.23;100.00;98271.98;271831;1272;22609;-92
2024/01/06 19:41:28;;;;;;;25.60;14.30;;;;;;;0.22;100.00;98274.50;271523;1272;23009;-93
2024/01/06 19:48:27;;;;;;;;;;;;;;;;;;;;;
2024/01/06 19:54:36;;;;;;;17.60;10.20;;;;;;;0.17;100.00;98282.52;270972;1272;23366;-93
2024/01/06 20:01:39;;;;;;;;;;;;;;;;;;;;;
2024/01/06 20:08:06;;;;;;;18.70;10.40;;;;;;;0.13;100.00;98279.83;271093;1272;22589;-92
2024/01/06 20:14:36;;;;;;;23.00;11.70;;;;;;;0.11;100.00;98282.21;270762;1273;22571;-91
2024/01/06 20:21:19;;;;;;;;;;;;;;;;;;;;;
2024/01/06 20:27:29;;;;;;;19.50;10.30;;;;;;;0.07;100.00;98283.27;271546;1273;22581;-91
2024/01/06 20:33:34;;;;;;;21.50;11.80;;;;;;;0.06;100.00;98287.13;271245;1268;23898;-91
2024/01/06 20:39:36;;;;;;;19.10;11.10;;;;;;;0.06;100.00;98295.77;270785;1277;22636;-93
2024/01/06 20:45:41;;;;;;;20.50;11.30;;;;;;;0.05;100.00;98294.81;271430;1276;23806;-91
2024/01/06 20:51:43;;;;;;;18.90;11.60;;;;;;;0.02;100.00;98294.63;271304;1274;22560;-89
2024/01/06 20:57:46;;;;;;;16.60;10.10;;;;;;;-0.01;100.00;98296.89;270970;1272;22584;-89
2024/01/06 21:03:51;;;;;;;15.90;9.30;;;;;;;-0.03;100.00;98295.51;273151;1272;22390;-91
2024/01/06 21:09:53;;;;;;;14.90;9.30;;;;;;;-0.04;100.00;98291.70;272911;1274;22202;-90
2024/01/06 21:15:58;;;;;;;13.70;8.20;;;;;;;-0.05;100.00;98298.00;271625;1272;22543;-89
2024/01/06 21:22:00;;;;;;;13.70;8.60;;;;;;;-0.10;100.00;98300.87;272155;1272;23616;-89
2024/01/06 21:28:03;;;;;;;14.30;8.70;;;;;;;-0.12;100.00;98301.27;272966;1273;22149;-90
2024/01/06 21:34:07;;;;;;;16.80;8.90;;;;;;;-0.13;100.00;98303.46;271404;1272;22309;-90
2024/01/06 21:40:09;;;;;;;13.60;8.70;;;;;;;-0.16;100.00;98306.02;272223;1270;23205;-90
2024/01/06 21:46:16;;;;;;;17.60;9.50;;;;;;;-0.22;100.00;98310.02;272180;1272;22231;-90
2024/01/06 21:52:18;;;;;;;19.30;10.00;;;;;;;-0.27;100.00;98312.86;272941;1270;22318;-91
2024/01/06 21:58:25;;;;;;;17.90;9.20;;;;;;;-0.29;100.00;98309.60;272908;1272;23560;-93
2024/01/06 22:04:27;;;;;;;16.40;9.40;;;;;;;-0.34;100.00;98312.79;272865;1277;22537;-90
2024/01/06 22:10:32;;;;;;;20.00;11.50;;;;;;;-0.39;100.00;98314.41;271692;1271;22366;-89
2024/01/06 22:16:34;;;;;;;20.10;11.00;;;;;;;-0.43;100.00;98317.31;272987;1272;22412;-90
2024/01/06 22:22:36;;;;;;;18.60;9.80;;;;;;;-0.46;100.00;98320.02;273044;1271;22348;-88
2024/01/06 22:28:38;;;;;;;21.80;11.20;;;;;;;-0.57;100.00;98321.30;271552;1271;23448;-92
2024/01/06 22:34:46;;;;;;;19.90;10.90;;;;;;;-0.65;100.00;98324.02;272074;1272;22539;-89
2024/01/06 22:40:49;;;;;;;19.80;10.30;;;;;;;-0.66;100.00;98327.45;271434;1270;23284;-90
2024/01/06 22:46:51;;;;;;;18.10;10.60;;;;;;;-0.71;100.00;98327.92;272331;1270;22345;-91
2024/01/06 22:52:54;;;;;;;18.30;10.60;;;;;;;-0.75;100.00;98330.71;272105;1270;22807;-92
2024/01/06 22:58:56;;;;;;;27.10;11.20;;;;;;;-0.78;100.00;98335.84;273003;1273;22406;-90
2024/01/06 23:04:58;;;;;;;17.90;11.00;;;;;;;-0.78;100.00;98340.26;272308;1273;22567;-88
2024/01/06 23:11:00;;;;;;;20.90;11.10;;;;;;;-0.84;100.00;98336.48;272393;1273;22557;-90
2024/01/06 23:17:02;;;;;;;18.50;10.90;;;;;;;-0.95;100.00;98336.12;272207;1270;22287;-90
2024/01/06 23:23:04;;;;;;;18.70;10.80;;;;;;;-1.00;100.00;98340.07;272645;1271;22912;-90
2024/01/06 23:29:06;;;;;;;19.20;11.10;;;;;;;-1.01;100.00;98344.95;272995;1270;22268;-89
2024/01/06 23:35:08;;;;;;;18.40;10.20;;;;;;;-1.00;100.00;98345.41;273012;1270;23683;-89
2024/01/06 23:41:12;;;;;;;19.80;10.40;;;;;;;-1.03;100.00;98347.88;271423;1272;22641;-90
2024/01/06 23:47:14;;;;;;;18.30;10.10;;;;;;;-1.07;100.00;98356.90;271305;1270;22393;-90
2024/01/06 23:53:17;;;;;;;19.60;12.10;;;;;;;-1.11;100.00;98356.20;272994;1272;22303;-90
2024/01/06 23:59:19;;;;;;;23.80;10.90;;;;;;;-1.14;100.00;98358.45;273039;1273;23213;-90
